createdAt,value
2022-08-06T00:03:24.252Z,89.01
2022-08-06T00:08:23.515Z,88.23
2022-08-06T00:13:19.444Z,89.62
2022-08-06T00:18:19.441Z,87.70
2022-08-06T00:23:24.410Z,86.13
2022-08-06T00:28:17.391Z,88.90
2022-08-06T00:33:17.192Z,87.94
2022-08-06T00:38:18.991Z,88.37
2022-08-06T00:43:15.279Z,85.68
2022-08-06T00:48:21.722Z,86.20
2022-08-06T00:53:13.729Z,86.62
2022-08-06T00:58:15.924Z,90.52
2022-08-06T01:03:18.889Z,90.86
2022-08-06T01:08:11.234Z,90.11
2022-08-06T01:13:23.562Z,90.70
2022-08-06T01:18:09.611Z,89.24
2022-08-06T01:23:10.517Z,85.73
2022-08-06T01:28:11.275Z,87.09
2022-08-06T01:33:10.539Z,85.07
2022-08-06T01:38:10.493Z,86.03
2022-08-06T01:43:22.925Z,85.98
2022-08-06T01:48:05.456Z,86.38
2022-08-06T01:53:07.265Z,88.22
2022-08-06T01:58:18.912Z,89.43
2022-08-06T02:03:04.272Z,87.11
2022-08-06T02:08:36.806Z,88.16
2022-08-06T02:13:03.063Z,86.93
2022-08-06T02:18:07.023Z,85.68
2022-08-06T02:22:59.425Z,87.88
2022-08-06T02:28:01.795Z,88.24
2022-08-06T02:32:57.789Z,84.68
2022-08-06T02:38:02.406Z,84.37
2022-08-06T02:42:59.152Z,84.91
2022-08-06T02:48:01.735Z,83.84
2022-08-06T02:52:57.725Z,83.79
2022-08-06T02:57:58.041Z,87.34
2022-08-06T03:02:56.197Z,85.69
2022-08-06T03:07:59.079Z,84.89
2022-08-06T03:12:51.106Z,83.87
2022-08-06T03:17:50.221Z,81.25
2022-08-06T03:22:49.594Z,83.18
2022-08-06T03:27:48.553Z,81.36
2022-08-06T03:32:53.027Z,82.54
2022-08-06T03:37:59.878Z,81.61
2022-08-06T03:42:46.858Z,80.60
2022-08-06T03:48:07.211Z,82.50
2022-08-06T03:52:50.025Z,84.22
2022-08-06T03:57:47.284Z,82.61
2022-08-06T04:02:49.038Z,80.58
2022-08-06T04:07:54.436Z,83.70
2022-08-06T04:13:07.303Z,78.86
2022-08-06T04:17:45.869Z,77.51
2022-08-06T04:23:04.793Z,80.70
2022-08-06T04:27:53.876Z,78.32
2022-08-06T04:32:45.074Z,80.83
2022-08-06T04:37:40.967Z,88.72
2022-08-06T04:42:42.680Z,89.50
2022-08-06T04:47:47.210Z,85.82
2022-08-06T04:52:48.276Z,87.07
2022-08-06T04:57:41.757Z,83.92
2022-08-06T05:02:40.057Z,80.56
2022-08-06T05:07:51.968Z,78.75
2022-08-06T05:12:35.204Z,85.07
2022-08-06T05:17:35.605Z,88.98
2022-08-06T05:22:51.911Z,90.86
2022-08-06T05:27:40.060Z,90.74
2022-08-06T05:32:32.801Z,91.04
2022-08-06T05:38:01.451Z,80.54
2022-08-06T05:42:32.001Z,81.65
2022-08-06T05:47:47.752Z,82.28
2022-08-06T05:52:34.275Z,82.30
2022-08-06T05:57:40.919Z,81.25
2022-08-06T06:02:33.525Z,79.53
2022-08-06T06:08:08.218Z,78.98
2022-08-06T06:12:32.790Z,81.95
2022-08-06T06:17:40.249Z,79.48
2022-08-06T06:22:27.833Z,73.05
2022-08-06T06:27:42.644Z,75.14
2022-08-06T06:32:31.111Z,73.67
2022-08-06T06:37:28.439Z,71.57
2022-08-06T06:42:32.400Z,68.30
2022-08-06T06:47:28.366Z,72.47
2022-08-06T06:52:30.560Z,68.85
2022-08-06T06:57:24.752Z,69.96
2022-08-06T07:02:20.620Z,71.39
2022-08-06T07:07:24.188Z,71.95
2022-08-06T07:12:20.153Z,67.64
2022-08-06T07:17:46.432Z,67.10
2022-08-06T07:22:17.774Z,70.80
2022-08-06T07:27:20.136Z,66.94
2022-08-06T07:32:32.181Z,68.62
2022-08-06T07:37:15.989Z,78.99
2022-08-06T07:42:17.892Z,71.68
2022-08-06T07:47:23.963Z,72.10
2022-08-06T07:52:18.074Z,74.75
2022-08-06T07:57:14.777Z,66.93
2022-08-06T08:02:15.674Z,66.22
2022-08-06T08:07:13.308Z,67.08
2022-08-06T08:12:34.163Z,61.27
2022-08-06T08:17:13.287Z,61.98
2022-08-06T08:22:09.136Z,65.14
2022-08-06T08:27:12.473Z,69.82
2022-08-06T08:32:15.030Z,71.48
2022-08-06T08:37:17.319Z,67.81
2022-08-06T08:42:09.512Z,64.39
2022-08-06T08:47:12.474Z,61.00
2022-08-06T08:52:11.596Z,62.04
2022-08-06T08:58:38.056Z,60.23
2022-08-06T09:02:04.084Z,57.90
2022-08-06T09:07:03.460Z,56.69
2022-08-06T09:12:19.564Z,56.36
2022-08-06T09:17:02.404Z,58.21
2022-08-06T09:22:04.919Z,59.66
2022-08-06T09:27:03.191Z,57.55
2022-08-06T09:32:04.456Z,59.73
2022-08-06T09:37:04.987Z,57.36
2022-08-06T09:42:03.007Z,58.06
2022-08-06T09:47:02.657Z,57.69
2022-08-06T09:52:00.992Z,60.57
2022-08-06T09:56:58.835Z,54.44
2022-08-06T10:02:01.502Z,51.79
2022-08-06T10:06:57.781Z,49.99
2022-08-06T10:11:58.750Z,50.69
2022-08-06T10:17:00.262Z,47.37
2022-08-06T10:21:59.595Z,48.05
2022-08-06T10:26:56.229Z,50.30
2022-08-06T10:31:58.964Z,57.16
2022-08-06T10:36:55.225Z,56.34
2022-08-06T10:42:01.167Z,57.76
2022-08-06T10:46:54.762Z,57.18
2022-08-06T10:51:59.082Z,59.29
2022-08-06T10:56:57.274Z,59.98
2022-08-06T11:01:54.977Z,56.07
2022-08-06T11:06:56.644Z,57.06
2022-08-06T11:12:08.017Z,58.44
2022-08-06T11:16:53.097Z,63.86
2022-08-06T11:22:02.056Z,64.56
2022-08-06T11:26:56.372Z,60.37
2022-08-06T11:31:56.256Z,57.99
2022-08-06T11:36:57.963Z,60.67
2022-08-06T11:41:57.483Z,61.24
2022-08-06T11:46:51.351Z,52.84
2022-08-06T11:52:04.323Z,47.00
2022-08-06T11:56:50.056Z,48.12
2022-08-06T12:01:52.541Z,54.33
2022-08-06T12:06:49.485Z,55.29
2022-08-06T12:11:48.985Z,56.37
2022-08-06T12:16:53.880Z,67.39
2022-08-06T12:21:50.864Z,64.17
2022-08-06T12:26:47.678Z,60.31
2022-08-06T12:31:50.505Z,63.87
2022-08-06T12:36:47.219Z,60.33
2022-08-06T12:41:47.527Z,61.94
2022-08-06T12:46:49.754Z,59.12
2022-08-06T12:51:46.359Z,61.99
2022-08-06T12:56:46.152Z,65.51
2022-08-06T13:02:08.794Z,66.80
2022-08-06T13:07:14.262Z,64.35
2022-08-06T13:12:10.589Z,62.44
2022-08-06T13:17:19.059Z,61.79
2022-08-06T13:22:09.940Z,60.16
2022-08-06T13:27:09.997Z,64.35
2022-08-06T13:32:27.456Z,64.49
2022-08-06T13:37:09.360Z,60.41
2022-08-06T13:42:14.066Z,64.12
2022-08-06T13:47:35.779Z,61.88
2022-08-06T13:52:08.391Z,60.03
2022-08-06T13:57:12.280Z,63.01
2022-08-06T14:02:07.751Z,60.11
2022-08-06T14:07:07.404Z,60.62
2022-08-06T14:12:07.585Z,59.83
2022-08-06T14:17:06.794Z,59.84
2022-08-06T14:22:09.470Z,59.84
2022-08-06T14:27:15.789Z,59.28
2022-08-06T14:32:06.511Z,62.14
2022-08-06T14:37:14.611Z,63.96
2022-08-06T14:42:04.925Z,64.86
2022-08-06T14:47:07.472Z,61.34
2022-08-06T14:52:22.705Z,69.15
2022-08-06T14:57:14.623Z,71.28
2022-08-06T15:02:04.089Z,67.45
2022-08-06T15:07:05.792Z,67.21
2022-08-06T15:12:05.407Z,67.36
2022-08-06T15:17:30.463Z,64.84
2022-08-06T15:22:02.442Z,64.65
2022-08-06T15:27:04.029Z,66.64
2022-08-06T15:32:08.602Z,68.96
2022-08-06T15:37:03.723Z,62.76
2022-08-06T15:41:59.476Z,61.45
2022-08-06T15:46:59.080Z,60.83
2022-08-06T15:52:01.686Z,64.71
2022-08-06T15:56:59.217Z,65.69
2022-08-06T16:02:04.407Z,64.85
2022-08-06T16:06:57.410Z,66.33
2022-08-06T16:11:59.679Z,68.30
2022-08-06T16:16:56.227Z,66.87
2022-08-06T16:21:58.822Z,63.34
2022-08-06T16:26:57.856Z,60.90
2022-08-06T16:31:54.785Z,62.41
2022-08-06T16:36:57.459Z,60.20
2022-08-06T16:46:53.108Z,67.06
2022-08-06T16:56:57.300Z,63.02
2022-08-06T17:02:21.304Z,63.12
2022-08-06T17:06:51.089Z,64.43
2022-08-06T17:11:58.282Z,65.71
2022-08-06T17:16:49.833Z,64.35
2022-08-06T17:21:58.332Z,64.05
2022-08-06T17:26:48.825Z,63.63
2022-08-06T17:31:55.365Z,60.04
2022-08-06T17:36:53.666Z,63.13
2022-08-06T17:41:49.470Z,61.89
2022-08-06T17:42:29.496Z,64.77
2022-08-06T17:46:47.889Z,65.09
2022-08-06T17:51:51.054Z,66.08
2022-08-06T17:56:49.174Z,63.39
2022-08-06T18:01:46.415Z,62.25
2022-08-06T18:06:47.813Z,57.41
2022-08-06T18:11:43.813Z,57.17
2022-08-06T18:16:43.197Z,56.37
2022-08-06T18:21:50.710Z,61.26
2022-08-06T18:26:41.974Z,62.43
2022-08-06T18:31:59.730Z,62.81
2022-08-06T18:36:40.789Z,64.15
2022-08-06T18:41:58.221Z,65.26
2022-08-06T18:46:56.285Z,65.95
2022-08-06T19:11:52.787Z,55.96
2022-08-06T19:16:36.020Z,57.33
2022-08-06T19:21:38.525Z,58.74
2022-08-06T19:26:35.533Z,60.34
2022-08-06T19:31:43.160Z,59.81
2022-08-06T19:36:36.707Z,61.89
2022-08-06T19:42:00.172Z,60.51
2022-08-06T19:46:34.578Z,59.14
2022-08-06T19:52:02.501Z,61.27
2022-08-06T19:56:31.723Z,61.33
2022-08-06T20:01:34.827Z,58.58
2022-08-06T20:07:00.820Z,58.38
2022-08-06T20:12:01.891Z,59.23
2022-08-06T20:16:28.701Z,60.57
2022-08-06T20:21:43.053Z,62.14
2022-08-06T20:26:36.753Z,60.87
2022-08-06T20:31:32.639Z,60.81
2022-08-06T20:36:28.322Z,62.37
2022-08-06T20:42:02.876Z,65.40
2022-08-06T20:46:35.780Z,65.17
2022-08-06T20:51:27.045Z,63.22
2022-08-06T20:56:24.254Z,64.58
2022-08-06T21:01:22.695Z,65.48
2022-08-06T21:06:30.606Z,65.99
2022-08-06T21:11:22.100Z,63.23
2022-08-06T21:16:32.664Z,63.06
2022-08-06T21:21:19.969Z,62.85
2022-08-06T21:26:24.811Z,65.67
2022-08-06T21:31:21.341Z,63.76
2022-08-06T21:36:19.501Z,64.98
2022-08-06T21:41:29.603Z,64.37
2022-08-06T21:46:27.448Z,66.23
2022-08-06T21:51:16.509Z,68.25
2022-08-06T21:56:36.447Z,69.46
2022-08-06T22:02:13.552Z,72.01
2022-08-06T22:06:38.777Z,68.54
